Time;durP1;ratioP1;P1;durP2;ratioP2;P2;SDS_P1;SDS_P2;PMS_P1;PMS_P2;Temp;Humidity;BMP_temperature;BMP_pressure;BME280_temperature;BME280_humidity;BME280_pressure;Samples;Min_cycle;Max_cycle;Signal;HPM_P1;HPM_P2
2023/02/19 00:00:13;;;;;;;63.60;8.90;;;;;;;;;;5053128;28;20448;-63
2023/02/19 00:02:41;;;;;;;63.30;7.97;;;;;;;;;;5053122;28;20533;-63
2023/02/19 00:05:09;;;;;;;62.07;7.73;;;;;;;;;;5053245;28;20475;-63
2023/02/19 00:07:36;;;;;;;63.10;8.43;;;;;;;;;;5053197;28;20968;-63
2023/02/19 00:10:04;;;;;;;61.90;7.90;;;;;;;;;;5052993;28;20448;-63
2023/02/19 00:12:31;;;;;;;63.20;7.83;;;;;;;;;;5053688;28;20488;-63
2023/02/19 00:14:58;;;;;;;63.47;7.73;;;;;;;;;;5053272;28;20474;-64
2023/02/19 00:17:25;;;;;;;62.80;6.90;;;;;;;;;;5053007;28;20780;-63
2023/02/19 00:19:52;;;;;;;61.40;6.93;;;;;;;;;;5052581;28;20955;-63
2023/02/19 00:22:21;;;;;;;62.37;7.90;;;;;;;;;;5052771;28;20467;-63
2023/02/19 00:24:48;;;;;;;61.97;7.53;;;;;;;;;;5052584;28;20484;-65
2023/02/19 00:27:15;;;;;;;61.27;7.20;;;;;;;;;;5053009;28;20856;-61
2023/02/19 00:29:42;;;;;;;61.40;7.30;;;;;;;;;;5052503;28;20454;-62
2023/02/19 00:32:10;;;;;;;63.70;7.70;;;;;;;;;;5052700;28;20483;-62
2023/02/19 00:34:37;;;;;;;62.37;7.47;;;;;;;;;;5052474;28;21004;-63
2023/02/19 00:37:04;;;;;;;64.00;7.43;;;;;;;;;;5052539;28;20483;-62
2023/02/19 00:39:32;;;;;;;62.10;7.40;;;;;;;;;;5052318;28;20479;-62
2023/02/19 00:41:59;;;;;;;60.80;6.73;;;;;;;;;;5052538;28;20451;-62
2023/02/19 00:44:27;;;;;;;61.47;7.17;;;;;;;;;;5052346;28;20965;-62
2023/02/19 00:46:54;;;;;;;62.23;7.93;;;;;;;;;;5052518;28;20513;-63
2023/02/19 00:49:22;;;;;;;64.10;8.50;;;;;;;;;;5051949;28;20459;-64
2023/02/19 00:51:49;;;;;;;61.50;7.63;;;;;;;;;;5052561;28;20440;-63
2023/02/19 00:54:17;;;;;;;62.50;8.10;;;;;;;;;;5052310;28;20478;-64
2023/02/19 00:56:45;;;;;;;62.40;7.83;;;;;;;;;;5052471;28;20458;-63
2023/02/19 00:59:12;;;;;;;63.30;7.93;;;;;;;;;;5051900;28;20836;-63
2023/02/19 01:01:39;;;;;;;62.13;7.97;;;;;;;;;;5051386;28;20448;-64
2023/02/19 01:04:07;;;;;;;62.07;7.53;;;;;;;;;;5052030;28;20451;-63
2023/02/19 01:06:34;;;;;;;63.30;8.97;;;;;;;;;;5052270;28;20448;-63
2023/02/19 01:09:01;;;;;;;62.90;8.17;;;;;;;;;;5051778;28;20480;-63
2023/02/19 01:11:28;;;;;;;63.37;9.10;;;;;;;;;;5052114;28;20459;-62
2023/02/19 01:13:59;;;;;;;65.43;8.30;;;;;;;;;;5051800;28;20491;-64
2023/02/19 01:16:26;;;;;;;62.70;8.03;;;;;;;;;;5051838;28;20458;-62
2023/02/19 01:18:54;;;;;;;62.47;7.80;;;;;;;;;;5051797;28;20452;-63
2023/02/19 01:21:22;;;;;;;63.10;7.60;;;;;;;;;;5052018;28;20452;-63
2023/02/19 01:23:50;;;;;;;65.13;8.60;;;;;;;;;;5051773;28;20466;-63
2023/02/19 01:26:17;;;;;;;62.53;8.63;;;;;;;;;;5051730;28;20471;-63
2023/02/19 01:28:45;;;;;;;63.60;8.67;;;;;;;;;;5051434;28;20450;-63
2023/02/19 01:31:15;;;;;;;63.10;7.93;;;;;;;;;;5051774;28;20456;-63
2023/02/19 01:33:45;;;;;;;62.20;8.23;;;;;;;;;;5051873;28;20494;-63
2023/02/19 01:36:13;;;;;;;61.70;7.73;;;;;;;;;;5051769;28;20468;-62
2023/02/19 01:38:40;;;;;;;62.83;8.83;;;;;;;;;;5051400;28;20458;-64
2023/02/19 01:41:08;;;;;;;63.03;8.37;;;;;;;;;;5052264;28;20451;-64
2023/02/19 01:43:36;;;;;;;66.10;8.93;;;;;;;;;;5052071;28;20544;-63
2023/02/19 01:46:03;;;;;;;64.50;8.40;;;;;;;;;;5051751;28;20487;-62
2023/02/19 01:48:34;;;;;;;63.97;7.87;;;;;;;;;;5051612;28;20818;-62
2023/02/19 01:51:04;;;;;;;62.50;8.40;;;;;;;;;;5051716;28;20448;-63
2023/02/19 01:53:34;;;;;;;62.97;8.20;;;;;;;;;;5051553;28;20484;-63
2023/02/19 01:56:01;;;;;;;64.30;8.87;;;;;;;;;;5051324;28;20984;-62
2023/02/19 01:58:29;;;;;;;64.10;8.60;;;;;;;;;;5051536;28;20471;-62
2023/02/19 02:00:57;;;;;;;65.47;9.37;;;;;;;;;;5051493;28;20451;-62
2023/02/19 02:03:24;;;;;;;66.67;8.83;;;;;;;;;;5051587;28;20463;-62
2023/02/19 02:05:56;;;;;;;65.00;8.73;;;;;;;;;;5051322;28;21033;-62
2023/02/19 02:11:08;;;;;;;64.17;9.53;;;;;;;;;;5051476;28;20420;-64
2023/02/19 02:13:35;;;;;;;64.97;9.67;;;;;;;;;;5055340;28;20496;-64
2023/02/19 02:16:11;;;;;;;62.17;8.60;;;;;;;;;;5055447;28;20475;-64
2023/02/19 02:18:42;;;;;;;66.30;10.97;;;;;;;;;;5054972;28;20448;-64
2023/02/19 02:21:30;;;;;;;66.13;9.27;;;;;;;;;;5055277;28;20932;-64
2023/02/19 02:24:07;;;;;;;67.70;9.60;;;;;;;;;;5055458;28;20984;-64
2023/02/19 02:26:46;;;;;;;64.73;8.40;;;;;;;;;;5055532;28;20952;-65
2023/02/19 02:29:32;;;;;;;64.43;9.53;;;;;;;;;;5054902;28;20474;-66
2023/02/19 02:32:04;;;;;;;64.33;9.17;;;;;;;;;;5055723;28;20456;-65
2023/02/19 02:34:35;;;;;;;63.07;8.60;;;;;;;;;;5055376;28;20468;-65
2023/02/19 02:37:03;;;;;;;63.23;9.30;;;;;;;;;;5055191;28;20459;-65
2023/02/19 02:39:31;;;;;;;62.87;8.90;;;;;;;;;;5054916;28;20444;-65
2023/02/19 02:45:33;;;;;;;61.80;6.83;;;;;;;;;;5055119;28;20878;-63
2023/02/19 02:47:43;;;;;;;61.60;6.60;;;;;;;;;;5055333;28;20498;-64
2023/02/19 02:50:12;;;;;;;62.30;7.47;;;;;;;;;;5054727;28;20961;-64
2023/02/19 02:55:26;;;;;;;60.07;5.97;;;;;;;;;;5054816;28;20435;-64
2023/02/19 02:57:53;;;;;;;62.17;5.83;;;;;;;;;;5053291;28;20452;-64
2023/02/19 03:00:21;;;;;;;59.70;5.80;;;;;;;;;;5054485;28;20448;-64
2023/02/19 03:02:49;;;;;;;59.60;5.80;;;;;;;;;;5054728;28;20814;-64
2023/02/19 03:08:06;;;;;;;61.57;6.07;;;;;;;;;;5054659;28;20423;-64
2023/02/19 03:10:36;;;;;;;60.27;5.70;;;;;;;;;;5054602;28;20803;-64
2023/02/19 03:21:29;;;;;;;60.77;5.80;;;;;;;;;;5054252;28;20531;-63
2023/02/19 03:26:41;;;;;;;60.70;5.87;;;;;;;;;;5054613;28;20787;-64
2023/02/19 03:31:57;;;;;;;60.93;5.90;;;;;;;;;;5050319;28;20437;-64
2023/02/19 03:34:27;;;;;;;60.20;5.93;;;;;;;;;;5053943;28;20517;-64
2023/02/19 03:36:56;;;;;;;60.67;5.90;;;;;;;;;;5054061;28;20466;-64
2023/02/19 03:39:23;;;;;;;60.00;5.70;;;;;;;;;;5053657;28;20461;-64
2023/02/19 03:41:56;;;;;;;59.73;5.80;;;;;;;;;;5054106;28;20502;-64
2023/02/19 03:44:28;;;;;;;61.00;5.50;;;;;;;;;;5054136;28;20464;-63
2023/02/19 03:46:57;;;;;;;60.07;5.90;;;;;;;;;;5054152;28;20457;-64
2023/02/19 03:49:28;;;;;;;60.50;6.10;;;;;;;;;;5053715;28;20452;-64
2023/02/19 03:52:01;;;;;;;59.90;6.07;;;;;;;;;;5053918;28;20474;-63
2023/02/19 03:54:33;;;;;;;67.27;5.77;;;;;;;;;;5053871;28;20484;-63
2023/02/19 03:57:04;;;;;;;59.70;6.00;;;;;;;;;;5053834;28;20459;-63
2023/02/19 03:59:33;;;;;;;61.03;5.97;;;;;;;;;;5053487;28;20965;-63
2023/02/19 04:02:02;;;;;;;61.17;5.70;;;;;;;;;;5053836;28;20448;-63
2023/02/19 04:04:32;;;;;;;60.00;5.83;;;;;;;;;;5053539;28;20516;-63
2023/02/19 04:06:59;;;;;;;59.50;5.80;;;;;;;;;;5053876;28;20772;-63
2023/02/19 04:09:28;;;;;;;59.27;5.43;;;;;;;;;;5053127;28;20539;-63
2023/02/19 04:11:55;;;;;;;61.10;5.73;;;;;;;;;;5053273;28;20452;-61
2023/02/19 04:14:24;;;;;;;58.80;4.97;;;;;;;;;;5053251;28;20496;-63
2023/02/19 04:16:54;;;;;;;63.07;5.30;;;;;;;;;;5053137;28;20941;-63
2023/02/19 04:19:22;;;;;;;59.40;5.30;;;;;;;;;;5052454;28;20448;-61
2023/02/19 04:21:51;;;;;;;60.27;6.17;;;;;;;;;;5053104;28;20456;-63
2023/02/19 04:24:22;;;;;;;60.43;4.60;;;;;;;;;;5052737;28;21030;-63
2023/02/19 04:26:49;;;;;;;59.50;5.20;;;;;;;;;;5052901;28;20452;-62
2023/02/19 04:29:16;;;;;;;60.40;5.17;;;;;;;;;;5052620;28;20444;-63
2023/02/19 04:31:43;;;;;;;62.07;5.10;;;;;;;;;;5052694;28;20452;-63
2023/02/19 04:34:11;;;;;;;60.27;5.00;;;;;;;;;;5053218;28;20496;-63
2023/02/19 04:36:38;;;;;;;59.50;4.80;;;;;;;;;;5053098;28;20453;-63
2023/02/19 04:39:07;;;;;;;58.60;4.10;;;;;;;;;;5052500;28;20456;-63
2023/02/19 04:41:34;;;;;;;59.97;5.00;;;;;;;;;;5052735;28;20453;-63
2023/02/19 04:44:01;;;;;;;59.50;4.70;;;;;;;;;;5052451;28;20455;-63
2023/02/19 04:46:28;;;;;;;58.67;4.33;;;;;;;;;;5052801;28;20460;-63
2023/02/19 04:48:55;;;;;;;58.30;4.30;;;;;;;;;;5052377;28;20448;-63
2023/02/19 04:51:22;;;;;;;58.97;4.53;;;;;;;;;;5053037;28;20974;-63
2023/02/19 04:53:49;;;;;;;58.80;4.03;;;;;;;;;;5052677;28;20578;-63
2023/02/19 04:56:18;;;;;;;60.10;4.73;;;;;;;;;;5052782;28;20475;-63
2023/02/19 04:58:45;;;;;;;58.70;3.90;;;;;;;;;;5052244;28;20956;-63
2023/02/19 05:01:13;;;;;;;59.70;4.40;;;;;;;;;;5052462;28;20456;-62
2023/02/19 05:03:40;;;;;;;59.63;4.00;;;;;;;;;;5052504;28;20448;-62
2023/02/19 05:06:09;;;;;;;59.33;3.70;;;;;;;;;;5052440;28;20494;-63
2023/02/19 05:08:36;;;;;;;57.37;3.80;;;;;;;;;;5052051;28;20449;-64
2023/02/19 05:11:05;;;;;;;57.67;3.00;;;;;;;;;;5052338;28;20817;-63
2023/02/19 05:13:33;;;;;;;57.53;3.07;;;;;;;;;;5052138;28;20480;-62
2023/02/19 05:16:01;;;;;;;57.77;2.80;;;;;;;;;;5051933;28;20468;-63
2023/02/19 05:18:29;;;;;;;58.07;3.23;;;;;;;;;;5051904;28;20531;-62
2023/02/19 05:20:57;;;;;;;57.70;2.90;;;;;;;;;;5051803;28;20456;-62
2023/02/19 05:23:24;;;;;;;58.70;3.00;;;;;;;;;;5051877;28;20467;-62
2023/02/19 05:25:51;;;;;;;58.77;2.90;;;;;;;;;;5051709;28;20468;-63
2023/02/19 05:28:19;;;;;;;59.83;2.60;;;;;;;;;;5051923;28;20455;-62
2023/02/19 05:30:48;;;;;;;57.60;2.80;;;;;;;;;;5051585;28;20491;-61
2023/02/19 05:33:16;;;;;;;58.30;2.83;;;;;;;;;;5051824;28;20823;-62
2023/02/19 05:35:44;;;;;;;57.67;2.77;;;;;;;;;;5051892;28;20478;-63
2023/02/19 05:38:11;;;;;;;57.67;2.60;;;;;;;;;;5051714;28;20453;-63
2023/02/19 05:40:38;;;;;;;59.37;3.30;;;;;;;;;;5051722;28;20456;-62
2023/02/19 05:43:05;;;;;;;57.87;3.10;;;;;;;;;;5051844;28;20470;-61
2023/02/19 05:45:33;;;;;;;57.33;2.80;;;;;;;;;;5051713;28;20469;-62
2023/02/19 05:48:01;;;;;;;57.00;2.67;;;;;;;;;;5057230;28;20455;-63
2023/02/19 05:50:29;;;;;;;57.53;2.80;;;;;;;;;;5058067;28;20817;-63
2023/02/19 05:52:56;;;;;;;58.60;2.83;;;;;;;;;;5058362;28;20550;-63
2023/02/19 05:55:23;;;;;;;57.47;2.47;;;;;;;;;;5058103;28;20487;-63
2023/02/19 05:57:50;;;;;;;58.00;2.70;;;;;;;;;;5058491;28;20475;-64
2023/02/19 06:00:18;;;;;;;57.57;2.60;;;;;;;;;;5057966;28;20454;-61
2023/02/19 06:02:45;;;;;;;57.77;2.77;;;;;;;;;;5058170;28;20456;-61
2023/02/19 06:05:14;;;;;;;57.67;2.63;;;;;;;;;;5058190;28;20460;-63
2023/02/19 06:07:41;;;;;;;57.27;2.73;;;;;;;;;;5058427;28;20529;-61
2023/02/19 06:10:09;;;;;;;57.57;2.63;;;;;;;;;;5057929;28;20447;-61
2023/02/19 06:12:37;;;;;;;57.30;2.67;;;;;;;;;;5058039;28;20501;-61
2023/02/19 06:15:05;;;;;;;57.60;2.70;;;;;;;;;;5058022;28;20495;-61
2023/02/19 06:17:32;;;;;;;57.43;2.73;;;;;;;;;;5057967;28;20800;-62
2023/02/19 06:19:59;;;;;;;57.37;2.60;;;;;;;;;;5057495;28;20452;-61
2023/02/19 06:22:28;;;;;;;56.93;2.43;;;;;;;;;;5058154;28;20811;-60
2023/02/19 06:24:55;;;;;;;57.77;2.37;;;;;;;;;;5057836;28;20980;-61
2023/02/19 06:27:23;;;;;;;57.47;2.60;;;;;;;;;;5058147;28;20447;-62
2023/02/19 06:29:50;;;;;;;57.60;2.50;;;;;;;;;;5057486;28;20948;-62
2023/02/19 06:32:17;;;;;;;58.30;2.80;;;;;;;;;;5057840;28;20571;-62
2023/02/19 06:34:45;;;;;;;57.50;2.80;;;;;;;;;;5057595;28;20570;-61
2023/02/19 06:37:12;;;;;;;57.37;2.60;;;;;;;;;;5057741;28;20452;-62
2023/02/19 06:39:40;;;;;;;57.70;2.77;;;;;;;;;;5057956;28;20459;-64
2023/02/19 06:42:07;;;;;;;57.53;2.40;;;;;;;;;;5057901;28;20463;-62
2023/02/19 06:44:35;;;;;;;57.77;2.90;;;;;;;;;;5057866;28;20459;-61
2023/02/19 06:47:02;;;;;;;57.80;2.80;;;;;;;;;;5057608;28;20961;-62
2023/02/19 06:49:29;;;;;;;57.33;2.43;;;;;;;;;;5057843;28;20443;-62
2023/02/19 06:51:56;;;;;;;58.20;2.43;;;;;;;;;;5057866;28;20448;-63
2023/02/19 06:54:24;;;;;;;56.70;2.50;;;;;;;;;;5057384;28;20487;-62
2023/02/19 06:56:53;;;;;;;57.70;2.77;;;;;;;;;;5058397;28;20890;-62
2023/02/19 06:59:20;;;;;;;57.47;2.70;;;;;;;;;;5053848;28;20901;-62
2023/02/19 07:01:47;;;;;;;57.43;2.83;;;;;;;;;;5054436;28;20471;-66
2023/02/19 07:04:14;;;;;;;57.87;2.57;;;;;;;;;;5054580;28;20446;-63
2023/02/19 07:06:42;;;;;;;59.60;2.83;;;;;;;;;;5054580;28;20459;-62
2023/02/19 07:09:09;;;;;;;58.20;2.97;;;;;;;;;;5054221;28;20444;-63
2023/02/19 07:11:37;;;;;;;58.13;3.03;;;;;;;;;;5054280;28;20915;-63
2023/02/19 07:14:07;;;;;;;57.80;2.80;;;;;;;;;;5054036;28;20492;-63
2023/02/19 07:16:35;;;;;;;57.77;2.77;;;;;;;;;;5054676;28;20452;-63
2023/02/19 07:19:02;;;;;;;57.47;2.83;;;;;;;;;;5054013;28;20502;-62
2023/02/19 07:21:30;;;;;;;58.97;3.00;;;;;;;;;;5054208;28;20444;-62
2023/02/19 07:23:57;;;;;;;57.70;2.73;;;;;;;;;;5054114;28;20465;-62
2023/02/19 07:26:25;;;;;;;58.67;3.40;;;;;;;;;;5053997;28;20463;-61
2023/02/19 07:28:52;;;;;;;57.80;3.30;;;;;;;;;;5053608;28;20842;-62
2023/02/19 07:31:21;;;;;;;58.00;3.10;;;;;;;;;;5054082;28;20448;-62
2023/02/19 07:33:49;;;;;;;58.13;3.10;;;;;;;;;;5054082;28;20448;-63
2023/02/19 07:36:17;;;;;;;58.37;3.50;;;;;;;;;;5054163;28;20468;-63
2023/02/19 07:38:44;;;;;;;57.70;3.10;;;;;;;;;;5053665;28;20453;-63
2023/02/19 07:41:11;;;;;;;58.07;3.27;;;;;;;;;;5053820;28;20459;-62
2023/02/19 07:43:39;;;;;;;58.03;2.87;;;;;;;;;;5053834;28;20462;-64
2023/02/19 07:46:06;;;;;;;57.80;3.10;;;;;;;;;;5053622;28;20483;-62
2023/02/19 07:48:36;;;;;;;58.20;2.97;;;;;;;;;;5053477;28;20459;-63
2023/02/19 07:51:03;;;;;;;58.27;3.37;;;;;;;;;;5053447;28;20459;-62
2023/02/19 07:53:31;;;;;;;58.87;3.30;;;;;;;;;;5053895;28;20455;-62
2023/02/19 07:56:01;;;;;;;57.97;3.23;;;;;;;;;;5053063;28;20491;-62
2023/02/19 07:58:28;;;;;;;58.70;3.70;;;;;;;;;;5053472;28;20451;-63
2023/02/19 08:00:55;;;;;;;59.10;3.30;;;;;;;;;;5053420;28;20460;-60
2023/02/19 08:03:22;;;;;;;58.70;3.60;;;;;;;;;;5053450;28;20455;-64
2023/02/19 08:05:52;;;;;;;58.27;3.40;;;;;;;;;;5053114;28;20490;-63
2023/02/19 08:08:19;;;;;;;58.07;3.20;;;;;;;;;;5053078;28;20462;-63
2023/02/19 08:13:32;;;;;;;58.50;3.33;;;;;;;;;;5053235;28;20920;-63
2023/02/19 08:16:10;;;;;;;57.40;3.10;;;;;;;;;;5053011;28;20837;-63
2023/02/19 08:18:37;;;;;;;57.80;3.70;;;;;;;;;;5052593;28;20467;-64
2023/02/19 08:21:06;;;;;;;58.60;3.90;;;;;;;;;;5053191;28;20471;-63
2023/02/19 08:23:33;;;;;;;59.47;4.30;;;;;;;;;;5052987;28;20483;-63
2023/02/19 08:26:01;;;;;;;58.87;3.50;;;;;;;;;;5053026;28;20460;-64
2023/02/19 08:28:28;;;;;;;58.10;3.50;;;;;;;;;;5053195;28;20949;-64
2023/02/19 08:30:59;;;;;;;61.10;3.50;;;;;;;;;;5052901;28;20440;-62
2023/02/19 08:33:26;;;;;;;58.40;3.40;;;;;;;;;;5052675;28;20448;-62
2023/02/19 08:35:53;;;;;;;59.47;3.53;;;;;;;;;;5052558;28;21051;-67
2023/02/19 08:38:21;;;;;;;58.63;3.60;;;;;;;;;;5052856;28;20455;-63
2023/02/19 08:40:49;;;;;;;58.20;3.33;;;;;;;;;;5052370;28;20440;-63
2023/02/19 08:43:18;;;;;;;58.67;3.50;;;;;;;;;;5052477;28;20444;-63
2023/02/19 08:45:46;;;;;;;57.77;3.20;;;;;;;;;;5052411;28;20472;-62
2023/02/19 08:48:13;;;;;;;58.50;3.67;;;;;;;;;;5052404;28;20452;-63
2023/02/19 08:50:40;;;;;;;58.47;3.03;;;;;;;;;;5052342;28;20452;-63
2023/02/19 08:53:08;;;;;;;58.10;3.47;;;;;;;;;;5052606;28;20455;-62
2023/02/19 08:55:37;;;;;;;58.47;2.87;;;;;;;;;;5052448;28;20500;-66
2023/02/19 08:58:04;;;;;;;58.00;3.13;;;;;;;;;;5052232;28;20452;-63
2023/02/19 09:00:31;;;;;;;58.00;3.07;;;;;;;;;;5052086;28;20459;-63
2023/02/19 09:02:58;;;;;;;57.93;3.20;;;;;;;;;;5052485;28;20923;-63
2023/02/19 09:05:26;;;;;;;58.07;2.80;;;;;;;;;;5052197;28;20469;-64
2023/02/19 09:07:53;;;;;;;58.17;2.63;;;;;;;;;;5052324;28;20475;-63
2023/02/19 09:10:20;;;;;;;57.60;3.03;;;;;;;;;;5051809;28;20451;-63
2023/02/19 09:12:48;;;;;;;58.50;3.07;;;;;;;;;;5052054;28;20452;-65
2023/02/19 09:15:16;;;;;;;58.27;2.63;;;;;;;;;;5051928;28;20495;-64
2023/02/19 09:17:43;;;;;;;58.90;3.00;;;;;;;;;;5052296;28;20475;-66
2023/02/19 09:20:10;;;;;;;57.97;2.60;;;;;;;;;;5051628;28;20459;-64
2023/02/19 09:22:37;;;;;;;58.30;3.00;;;;;;;;;;5051402;28;20462;-64
2023/02/19 09:25:05;;;;;;;58.77;2.90;;;;;;;;;;5051826;28;21003;-65
2023/02/19 09:27:32;;;;;;;58.10;2.97;;;;;;;;;;5051756;28;20627;-64
2023/02/19 09:30:00;;;;;;;59.07;3.57;;;;;;;;;;5051426;28;20449;-64
2023/02/19 09:32:30;;;;;;;59.60;3.23;;;;;;;;;;5052085;28;20616;-64
2023/02/19 09:34:57;;;;;;;58.07;2.80;;;;;;;;;;5051811;28;20492;-64
2023/02/19 09:37:26;;;;;;;61.43;3.60;;;;;;;;;;5051856;28;20452;-64
2023/02/19 09:39:53;;;;;;;58.40;3.10;;;;;;;;;;5051256;28;20449;-63
2023/02/19 09:42:23;;;;;;;58.40;3.30;;;;;;;;;;5051823;28;20459;-63
2023/02/19 09:44:53;;;;;;;58.57;3.70;;;;;;;;;;5051713;28;20468;-63
2023/02/19 09:47:22;;;;;;;59.10;3.40;;;;;;;;;;5052090;28;20449;-63
2023/02/19 09:49:50;;;;;;;58.70;3.20;;;;;;;;;;5051245;28;20448;-63
2023/02/19 09:52:19;;;;;;;62.20;3.50;;;;;;;;;;5052075;28;20452;-64
2023/02/19 09:54:47;;;;;;;58.87;2.87;;;;;;;;;;5051756;28;20487;-65
2023/02/19 09:57:16;;;;;;;61.40;3.50;;;;;;;;;;5051936;28;20448;-65
2023/02/19 09:59:46;;;;;;;59.47;3.20;;;;;;;;;;5051540;28;20452;-65
2023/02/19 10:02:15;;;;;;;59.80;2.93;;;;;;;;;;5051825;28;20540;-63
2023/02/19 10:04:44;;;;;;;58.83;3.17;;;;;;;;;;5051772;28;20470;-63
2023/02/19 10:07:12;;;;;;;58.10;2.90;;;;;;;;;;5051550;28;20555;-64
2023/02/19 10:09:39;;;;;;;58.77;2.90;;;;;;;;;;5051372;28;20454;-64
2023/02/19 10:12:13;;;;;;;58.73;3.20;;;;;;;;;;5051849;28;20453;-64
2023/02/19 10:14:42;;;;;;;58.13;3.00;;;;;;;;;;5051307;28;20589;-64
2023/02/19 10:17:14;;;;;;;58.67;2.77;;;;;;;;;;5051392;28;20456;-63
2023/02/19 10:19:41;;;;;;;59.13;3.43;;;;;;;;;;5051141;28;20463;-64
2023/02/19 10:22:11;;;;;;;57.60;2.60;;;;;;;;;;5051480;28;20445;-63
2023/02/19 10:24:40;;;;;;;57.90;2.70;;;;;;;;;;5051208;28;20484;-64
2023/02/19 10:27:11;;;;;;;61.70;3.30;;;;;;;;;;5051475;28;20455;-61
2023/02/19 10:29:38;;;;;;;58.73;3.27;;;;;;;;;;5051051;28;20459;-63
2023/02/19 10:32:19;;;;;;;60.13;3.07;;;;;;;;;;5051046;28;20454;-63
2023/02/19 10:34:47;;;;;;;58.67;2.93;;;;;;;;;;5055093;28;20476;-62
2023/02/19 10:37:17;;;;;;;59.10;2.83;;;;;;;;;;5055531;28;20535;-63
2023/02/19 10:39:45;;;;;;;58.10;3.10;;;;;;;;;;5055169;28;20458;-63
2023/02/19 10:42:17;;;;;;;58.40;3.50;;;;;;;;;;5054964;28;20452;-63
2023/02/19 10:44:46;;;;;;;61.27;3.20;;;;;;;;;;5054959;28;20464;-62
2023/02/19 10:47:16;;;;;;;58.00;2.63;;;;;;;;;;5055220;28;20458;-64
2023/02/19 10:49:45;;;;;;;57.57;2.50;;;;;;;;;;5054832;28;20820;-63
2023/02/19 10:52:16;;;;;;;58.10;2.70;;;;;;;;;;5054888;28;20463;-63
2023/02/19 10:54:45;;;;;;;57.80;2.70;;;;;;;;;;5054793;28;20523;-65
2023/02/19 10:57:33;;;;;;;59.80;3.03;;;;;;;;;;5054805;28;20512;-63
2023/02/19 11:00:02;;;;;;;58.60;3.10;;;;;;;;;;5054608;28;20448;-63
2023/02/19 11:02:30;;;;;;;57.60;2.73;;;;;;;;;;5054865;28;20502;-63
2023/02/19 11:05:18;;;;;;;58.97;2.90;;;;;;;;;;5054654;28;20468;-63
2023/02/19 11:07:46;;;;;;;58.33;2.73;;;;;;;;;;5054706;28;20535;-63
2023/02/19 11:10:24;;;;;;;58.70;3.20;;;;;;;;;;5054125;28;20471;-62
2023/02/19 11:12:52;;;;;;;59.40;3.03;;;;;;;;;;5054536;28;20460;-65
2023/02/19 11:15:22;;;;;;;58.07;3.20;;;;;;;;;;5054338;28;20484;-63
2023/02/19 11:17:55;;;;;;;58.67;2.73;;;;;;;;;;5054320;28;20475;-64
2023/02/19 11:20:22;;;;;;;57.57;2.67;;;;;;;;;;5054466;28;20462;-64
2023/02/19 11:22:49;;;;;;;58.93;3.23;;;;;;;;;;5054170;28;20468;-63
2023/02/19 11:25:19;;;;;;;58.47;3.30;;;;;;;;;;5054352;28;20460;-64
2023/02/19 11:27:56;;;;;;;59.53;3.20;;;;;;;;;;5054286;28;20452;-63
2023/02/19 11:30:33;;;;;;;59.97;3.23;;;;;;;;;;5053690;28;20820;-63
2023/02/19 11:33:14;;;;;;;60.00;3.10;;;;;;;;;;5054071;28;20452;-64
2023/02/19 11:35:41;;;;;;;58.23;2.67;;;;;;;;;;5054124;28;20499;-64
2023/02/19 11:38:09;;;;;;;60.37;3.10;;;;;;;;;;5053889;28;20448;-63
2023/02/19 11:40:40;;;;;;;58.50;3.10;;;;;;;;;;5053874;28;20467;-63
2023/02/19 11:43:13;;;;;;;60.33;3.00;;;;;;;;;;5054083;28;20502;-63
2023/02/19 11:45:44;;;;;;;57.60;2.70;;;;;;;;;;5053492;28;20522;-68
2023/02/19 11:48:27;;;;;;;59.50;3.10;;;;;;;;;;5054073;28;20452;-63
2023/02/19 11:51:02;;;;;;;57.87;2.93;;;;;;;;;;5053615;28;20448;-63
2023/02/19 11:53:30;;;;;;;60.50;2.80;;;;;;;;;;5053546;28;20978;-64
2023/02/19 11:56:03;;;;;;;59.97;2.70;;;;;;;;;;5053711;28;20488;-64
2023/02/19 11:58:46;;;;;;;58.30;3.20;;;;;;;;;;5053544;28;20967;-64
2023/02/19 12:01:19;;;;;;;59.37;3.10;;;;;;;;;;5053844;28;20452;-63
2023/02/19 12:03:54;;;;;;;58.17;2.87;;;;;;;;;;5053489;28;20453;-63
2023/02/19 12:06:26;;;;;;;59.53;3.30;;;;;;;;;;5053724;28;20451;-64
2023/02/19 12:09:03;;;;;;;57.80;2.90;;;;;;;;;;5053119;28;20747;-63
2023/02/19 12:11:43;;;;;;;57.63;2.73;;;;;;;;;;5053552;28;20812;-63
2023/02/19 12:14:25;;;;;;;58.10;2.77;;;;;;;;;;5053746;28;20810;-63
2023/02/19 12:16:55;;;;;;;58.67;3.20;;;;;;;;;;5053508;28;21000;-63
2023/02/19 12:19:27;;;;;;;58.40;3.10;;;;;;;;;;5053006;28;20994;-63
2023/02/19 12:21:59;;;;;;;60.60;3.37;;;;;;;;;;5053460;28;20448;-63
2023/02/19 12:24:41;;;;;;;60.43;3.20;;;;;;;;;;5052825;28;20476;-63
2023/02/19 12:27:16;;;;;;;59.97;3.07;;;;;;;;;;5051094;28;20623;-63
2023/02/19 12:30:03;;;;;;;57.67;2.90;;;;;;;;;;5052962;28;20447;-64
2023/02/19 12:32:46;;;;;;;58.40;3.17;;;;;;;;;;5053042;28;20444;-61
2023/02/19 12:35:25;;;;;;;60.37;3.63;;;;;;;;;;5053055;28;20464;-63
2023/02/19 12:37:56;;;;;;;58.40;3.10;;;;;;;;;;5052965;28;20454;-63
2023/02/19 12:40:28;;;;;;;58.03;3.10;;;;;;;;;;5052717;28;20459;-63
2023/02/19 12:43:02;;;;;;;58.10;2.73;;;;;;;;;;5053237;28;20459;-63
2023/02/19 12:45:34;;;;;;;58.67;3.20;;;;;;;;;;5052754;28;20472;-62
2023/02/19 12:48:04;;;;;;;60.30;3.23;;;;;;;;;;5052767;28;20448;-67
2023/02/19 12:50:32;;;;;;;57.70;3.13;;;;;;;;;;5052469;28;20444;-64
2023/02/19 12:53:03;;;;;;;58.27;2.90;;;;;;;;;;5052643;28;20451;-63
2023/02/19 12:55:31;;;;;;;60.67;2.87;;;;;;;;;;5052248;28;20472;-63
2023/02/19 12:58:00;;;;;;;59.83;2.90;;;;;;;;;;5051420;28;20440;-64
2023/02/19 13:00:30;;;;;;;58.10;3.10;;;;;;;;;;5052220;28;20456;-63
2023/02/19 13:03:00;;;;;;;59.57;3.30;;;;;;;;;;5052676;28;20443;-63
2023/02/19 13:05:36;;;;;;;59.57;3.03;;;;;;;;;;5052448;28;20464;-63
2023/02/19 13:08:05;;;;;;;58.20;3.07;;;;;;;;;;5052206;28;20436;-63
2023/02/19 13:10:34;;;;;;;61.07;2.67;;;;;;;;;;5051971;28;20814;-63
2023/02/19 13:13:05;;;;;;;58.13;3.03;;;;;;;;;;5052630;28;20456;-63
2023/02/19 13:15:35;;;;;;;61.17;3.07;;;;;;;;;;5052254;28;20468;-63
2023/02/19 13:18:06;;;;;;;58.90;3.30;;;;;;;;;;5052284;28;20475;-63
2023/02/19 13:20:33;;;;;;;58.57;3.30;;;;;;;;;;5052159;28;20464;-64
2023/02/19 13:25:56;;;;;;;58.63;3.10;;;;;;;;;;5052156;28;20447;-63
2023/02/19 13:28:30;;;;;;;59.13;3.40;;;;;;;;;;5052105;28;20452;-64
2023/02/19 13:31:03;;;;;;;58.67;2.67;;;;;;;;;;5052004;28;20474;-62
2023/02/19 13:33:40;;;;;;;58.10;2.77;;;;;;;;;;5052164;28;20452;-63
2023/02/19 13:36:15;;;;;;;58.00;3.10;;;;;;;;;;5052026;28;20529;-63
2023/02/19 13:38:44;;;;;;;59.20;3.07;;;;;;;;;;5051797;28;20448;-63
2023/02/19 13:41:22;;;;;;;59.97;3.20;;;;;;;;;;5052101;28;20444;-63
2023/02/19 13:43:55;;;;;;;59.00;3.63;;;;;;;;;;5051830;28;20454;-63
2023/02/19 13:46:22;;;;;;;58.70;2.80;;;;;;;;;;5052138;28;20449;-63
2023/02/19 13:49:10;;;;;;;59.37;3.37;;;;;;;;;;5051560;28;20774;-63
2023/02/19 13:51:39;;;;;;;62.37;3.33;;;;;;;;;;5051717;28;20452;-63
2023/02/19 13:54:14;;;;;;;60.10;3.73;;;;;;;;;;5051757;28;20448;-63
2023/02/19 13:56:41;;;;;;;59.63;3.30;;;;;;;;;;5051855;28;20856;-63
2023/02/19 13:59:14;;;;;;;59.00;4.07;;;;;;;;;;5051559;28;20462;-63
2023/02/19 14:02:05;;;;;;;59.77;4.27;;;;;;;;;;5051802;28;20447;-63
2023/02/19 14:04:43;;;;;;;60.80;4.50;;;;;;;;;;5036632;28;20853;-63
2023/02/19 14:07:43;;;;;;;61.10;3.83;;;;;;;;;;5051837;28;20440;-63
2023/02/19 14:10:12;;;;;;;59.83;4.33;;;;;;;;;;5055603;28;20448;-63
2023/02/19 14:12:39;;;;;;;59.97;3.90;;;;;;;;;;5055690;28;20448;-63
2023/02/19 14:15:25;;;;;;;60.70;4.30;;;;;;;;;;5055569;28;21011;-63
2023/02/19 14:17:54;;;;;;;60.37;3.33;;;;;;;;;;5055532;28;20510;-63
2023/02/19 14:20:51;;;;;;;58.87;3.57;;;;;;;;;;5055383;28;20444;-63
2023/02/19 14:23:23;;;;;;;59.27;3.27;;;;;;;;;;4993554;28;20450;-63
2023/02/19 14:25:52;;;;;;;57.90;3.00;;;;;;;;;;5043088;28;21021;-64
2023/02/19 14:28:28;;;;;;;59.50;3.07;;;;;;;;;;5055483;28;20456;-63
2023/02/19 14:30:57;;;;;;;58.60;2.87;;;;;;;;;;5055302;28;20444;-63
2023/02/19 14:33:25;;;;;;;61.40;3.37;;;;;;;;;;5055464;28;20444;-63
2023/02/19 14:35:54;;;;;;;59.57;3.30;;;;;;;;;;5055025;28;20460;-63
2023/02/19 14:38:24;;;;;;;59.93;3.20;;;;;;;;;;5055323;28;20455;-63
2023/02/19 14:40:52;;;;;;;58.20;3.30;;;;;;;;;;5055246;28;20447;-63
2023/02/19 14:43:20;;;;;;;60.30;3.00;;;;;;;;;;5055269;28;20836;-63
2023/02/19 14:45:48;;;;;;;59.33;3.20;;;;;;;;;;5054986;28;20991;-62
2023/02/19 14:48:18;;;;;;;58.43;3.13;;;;;;;;;;5054727;28;20456;-63
2023/02/19 14:50:48;;;;;;;59.30;2.73;;;;;;;;;;5054942;28;20444;-62
2023/02/19 14:53:16;;;;;;;60.47;3.53;;;;;;;;;;5055007;28;20455;-63
2023/02/19 14:55:46;;;;;;;59.63;3.20;;;;;;;;;;5054607;28;21018;-63
2023/02/19 14:58:16;;;;;;;58.27;3.40;;;;;;;;;;5054453;28;21029;-64
2023/02/19 15:00:43;;;;;;;60.87;3.50;;;;;;;;;;5054576;28;20621;-63
2023/02/19 15:03:25;;;;;;;60.90;3.40;;;;;;;;;;5054534;28;20952;-62
2023/02/19 15:05:55;;;;;;;59.37;3.53;;;;;;;;;;5054546;28;20469;-61
2023/02/19 15:08:26;;;;;;;61.60;3.80;;;;;;;;;;5054684;28;20945;-61
2023/02/19 15:10:55;;;;;;;61.10;3.27;;;;;;;;;;5054361;28;20452;-63
2023/02/19 15:13:26;;;;;;;60.20;3.70;;;;;;;;;;5054731;28;20452;-63
2023/02/19 15:15:54;;;;;;;59.43;3.90;;;;;;;;;;5054526;28;20468;-63